createdAt,value
2018-06-12T00:02:06.591Z,59.68
2018-06-12T00:04:34.277Z,58.20
2018-06-12T00:07:01.968Z,58.95
2018-06-12T00:09:29.707Z,58.86
2018-06-12T00:11:57.784Z,58.16
2018-06-12T00:14:25.409Z,57.93
2018-06-12T00:16:52.954Z,59.10
2018-06-12T00:19:20.709Z,59.24
2018-06-12T00:21:48.368Z,58.85
2018-06-12T00:24:16.027Z,57.56
2018-06-12T00:26:43.635Z,57.01
2018-06-12T00:29:11.314Z,56.95
2018-06-12T00:31:38.942Z,57.52
2018-06-12T00:34:06.612Z,58.29
2018-06-12T00:36:34.236Z,57.90
2018-06-12T00:39:01.958Z,57.27
2018-06-12T00:41:29.734Z,57.91
2018-06-12T00:43:58.012Z,57.73
2018-06-12T00:46:25.684Z,58.38
2018-06-12T00:48:53.482Z,58.61
2018-06-12T00:51:22.242Z,59.34
2018-06-12T00:53:49.901Z,57.78
2018-06-12T00:56:34.919Z,57.07
2018-06-12T00:59:02.614Z,57.55
2018-06-12T01:01:30.269Z,58.03
2018-06-12T01:03:57.869Z,59.12
2018-06-12T01:06:25.445Z,59.51
2018-06-12T01:08:53.037Z,60.83
2018-06-12T01:11:20.625Z,61.25
2018-06-12T01:13:48.233Z,61.15
2018-06-12T01:16:16.035Z,57.94
2018-06-12T01:18:43.677Z,58.76
2018-06-12T01:21:11.303Z,59.58
2018-06-12T01:23:39.103Z,59.68
2018-06-12T01:26:06.737Z,59.14
2018-06-12T01:28:34.353Z,58.30
2018-06-12T01:31:02.881Z,59.02
2018-06-12T01:33:30.477Z,60.33
2018-06-12T01:35:58.069Z,60.39
2018-06-12T01:38:25.677Z,59.23
2018-06-12T01:40:53.388Z,60.70
2018-06-12T01:43:21.012Z,61.59
2018-06-12T01:45:48.676Z,63.03
2018-06-12T01:48:16.317Z,63.58
2018-06-12T01:50:43.890Z,64.94
2018-06-12T01:53:11.576Z,63.77
2018-06-12T01:55:39.175Z,64.27
2018-06-12T01:58:06.706Z,65.40
2018-06-12T02:00:34.316Z,65.89
2018-06-12T02:03:01.916Z,65.44
2018-06-12T02:05:29.498Z,66.32
2018-06-12T02:07:57.123Z,65.07
2018-06-12T02:10:24.708Z,63.53
2018-06-12T02:12:52.286Z,65.37
2018-06-12T02:15:19.872Z,65.97
2018-06-12T02:17:47.520Z,65.09
2018-06-12T02:20:15.118Z,63.46
2018-06-12T02:22:42.770Z,63.71
2018-06-12T02:25:10.404Z,65.33
2018-06-12T02:27:38.005Z,64.59
2018-06-12T02:30:05.577Z,65.00
2018-06-12T02:32:33.245Z,65.85
2018-06-12T02:35:00.965Z,66.44
2018-06-12T02:37:28.540Z,66.03
2018-06-12T02:39:56.757Z,65.37
2018-06-12T02:42:24.375Z,66.51
2018-06-12T02:44:51.966Z,66.48
2018-06-12T02:47:19.582Z,67.14
2018-06-12T02:49:47.202Z,68.34
2018-06-12T02:52:14.846Z,67.87
2018-06-12T02:54:42.440Z,68.65
2018-06-12T02:57:10.082Z,68.28
2018-06-12T02:59:37.657Z,68.09
2018-06-12T03:02:05.291Z,68.25
2018-06-12T03:04:32.934Z,67.83
2018-06-12T03:07:00.594Z,68.19
2018-06-12T03:09:28.223Z,67.75
2018-06-12T03:11:55.876Z,67.04
2018-06-12T03:14:23.520Z,67.50
2018-06-12T03:16:51.170Z,67.40
2018-06-12T03:19:18.917Z,66.26
2018-06-12T03:21:46.909Z,66.99
2018-06-12T03:24:14.660Z,67.39
2018-06-12T03:26:42.301Z,67.85
2018-06-12T03:29:09.956Z,67.48
2018-06-12T03:31:37.559Z,68.38
2018-06-12T03:34:05.124Z,66.88
2018-06-12T03:36:32.744Z,66.72
2018-06-12T03:39:00.321Z,67.85
2018-06-12T03:41:27.937Z,67.73
2018-06-12T03:43:55.557Z,68.08
2018-06-12T03:46:23.182Z,67.67
2018-06-12T03:48:50.858Z,67.23
2018-06-12T03:51:18.407Z,67.67
2018-06-12T03:53:46.003Z,66.57
2018-06-12T03:56:13.586Z,66.39
2018-06-12T03:58:41.177Z,65.96
2018-06-12T04:01:08.732Z,66.11
2018-06-12T04:03:36.391Z,67.53
2018-06-12T04:06:03.973Z,67.08
2018-06-12T04:08:31.513Z,66.39
2018-06-12T04:10:59.121Z,65.93
2018-06-12T04:13:26.713Z,65.92
2018-06-12T04:15:54.305Z,65.44
2018-06-12T04:18:22.011Z,65.43
2018-06-12T04:20:49.549Z,65.23
2018-06-12T04:23:17.099Z,65.63
2018-06-12T04:25:44.801Z,65.06
2018-06-12T04:28:12.378Z,65.09
2018-06-12T04:30:39.967Z,64.17
2018-06-12T04:33:07.554Z,64.83
2018-06-12T04:35:35.234Z,65.28
2018-06-12T04:38:02.857Z,64.53
2018-06-12T04:43:04.997Z,63.93
2018-06-12T04:45:32.719Z,64.09
2018-06-12T04:48:00.343Z,63.90
2018-06-12T04:50:27.993Z,64.78
2018-06-12T04:52:55.650Z,64.46
2018-06-12T04:55:23.282Z,64.01
2018-06-12T04:57:51.101Z,63.20
2018-06-12T05:00:18.684Z,62.77
2018-06-12T05:02:46.280Z,64.22
2018-06-12T05:05:13.882Z,62.84
2018-06-12T05:07:41.540Z,63.96
2018-06-12T05:10:09.158Z,62.95
2018-06-12T05:12:36.805Z,63.15
2018-06-12T05:15:04.546Z,62.86
2018-06-12T05:17:32.216Z,63.00
2018-06-12T05:19:59.904Z,62.64
2018-06-12T05:22:27.502Z,61.75
2018-06-12T05:24:55.389Z,61.63
2018-06-12T05:27:23.014Z,62.45
2018-06-12T05:29:50.745Z,62.04
2018-06-12T05:32:19.101Z,62.07
2018-06-12T05:34:47.495Z,62.53
2018-06-12T05:37:15.084Z,61.08
2018-06-12T05:39:42.761Z,63.50
2018-06-12T05:42:10.631Z,61.79
2018-06-12T05:44:38.404Z,60.89
2018-06-12T05:47:06.008Z,62.37
2018-06-12T05:49:33.687Z,61.28
2018-06-12T05:52:01.327Z,63.06
2018-06-12T05:54:28.945Z,64.04
2018-06-12T05:56:56.575Z,63.92
2018-06-12T05:59:24.269Z,64.07
2018-06-12T06:01:51.916Z,64.32
2018-06-12T06:04:19.550Z,63.91
2018-06-12T06:06:47.146Z,63.49
2018-06-12T06:09:14.720Z,63.31
2018-06-12T06:11:42.958Z,63.40
2018-06-12T06:14:10.629Z,62.91
2018-06-12T06:16:38.317Z,65.99
2018-06-12T06:19:05.946Z,64.59
2018-06-12T06:21:33.634Z,64.52
2018-06-12T06:24:01.666Z,64.02
2018-06-12T06:26:29.273Z,62.33
2018-06-12T06:28:56.906Z,61.78
2018-06-12T06:31:24.557Z,61.82
2018-06-12T06:33:52.218Z,61.89
2018-06-12T06:36:20.039Z,62.79
2018-06-12T06:38:47.702Z,62.46
2018-06-12T06:41:15.349Z,59.51
2018-06-12T06:43:42.969Z,60.42
2018-06-12T06:46:10.573Z,58.63
2018-06-12T06:48:38.192Z,56.78
2018-06-12T06:51:06.022Z,55.88
2018-06-12T06:53:33.611Z,55.86
2018-06-12T06:56:01.257Z,56.92
2018-06-12T06:58:28.891Z,55.88
2018-06-12T07:00:56.490Z,57.28
2018-06-12T07:03:24.178Z,56.91
2018-06-12T07:05:51.832Z,56.12
2018-06-12T07:08:19.468Z,55.12
2018-06-12T07:10:47.129Z,54.76
2018-06-12T07:13:14.741Z,55.17
2018-06-12T07:15:42.360Z,53.85
2018-06-12T07:18:09.935Z,56.28
2018-06-12T07:21:21.445Z,54.98
2018-06-12T07:23:49.090Z,53.11
2018-06-12T07:26:16.716Z,53.04
2018-06-12T07:28:44.309Z,53.37
2018-06-12T07:31:12.039Z,52.58
2018-06-12T07:33:39.905Z,52.80
2018-06-12T07:36:07.537Z,52.75
2018-06-12T07:38:35.209Z,53.51
2018-06-12T07:41:02.889Z,54.39
2018-06-12T07:43:30.577Z,53.18
2018-06-12T07:45:58.238Z,52.94
2018-06-12T07:48:25.846Z,53.19
2018-06-12T07:50:53.410Z,53.47
2018-06-12T07:53:21.049Z,52.23
2018-06-12T07:55:48.633Z,53.93
2018-06-12T07:58:16.314Z,53.65
2018-06-12T08:00:44.870Z,51.85
2018-06-12T08:03:12.460Z,50.47
2018-06-12T08:05:40.107Z,49.23
2018-06-12T08:08:07.711Z,50.19
2018-06-12T08:10:36.035Z,50.48
2018-06-12T08:13:03.783Z,51.05
2018-06-12T08:15:31.345Z,51.24
2018-06-12T08:17:59.017Z,49.28
2018-06-12T08:20:26.703Z,47.94
2018-06-12T08:22:54.292Z,47.45
2018-06-12T08:25:21.885Z,46.72
2018-06-12T08:27:49.530Z,48.85
2018-06-12T08:30:17.298Z,48.93
2018-06-12T08:32:44.879Z,49.86
2018-06-12T08:35:12.577Z,48.75
2018-06-12T08:37:40.216Z,47.26
2018-06-12T08:40:07.788Z,48.48
2018-06-12T08:42:35.446Z,48.36
2018-06-12T08:45:03.091Z,48.39
2018-06-12T08:47:30.706Z,47.01
2018-06-12T08:49:58.310Z,46.05
2018-06-12T08:52:25.890Z,48.77
2018-06-12T08:54:54.132Z,49.03
2018-06-12T08:57:22.080Z,48.32
2018-06-12T08:59:49.826Z,50.63
2018-06-12T09:02:17.480Z,50.54
2018-06-12T09:04:45.173Z,52.55
2018-06-12T09:07:12.871Z,50.76
2018-06-12T09:09:40.524Z,47.96
2018-06-12T09:12:08.200Z,48.19
2018-06-12T09:14:35.857Z,46.68
2018-06-12T09:17:03.813Z,46.40
2018-06-12T09:19:31.458Z,45.73
2018-06-12T09:21:59.152Z,45.72
2018-06-12T09:24:26.780Z,45.91
2018-06-12T09:26:54.450Z,45.38
2018-06-12T09:29:22.066Z,45.05
2018-06-12T09:31:49.674Z,46.02
2018-06-12T09:34:17.399Z,43.95
2018-06-12T09:36:44.960Z,44.03
2018-06-12T09:39:12.634Z,41.42
2018-06-12T09:41:40.317Z,42.23
2018-06-12T09:44:07.996Z,43.18
2018-06-12T09:46:35.596Z,41.91
2018-06-12T09:49:03.277Z,41.04
2018-06-12T09:51:30.878Z,43.79
2018-06-12T09:53:58.611Z,46.08
2018-06-12T09:56:26.247Z,42.99
2018-06-12T09:58:53.893Z,42.25
2018-06-12T10:01:22.447Z,42.43
2018-06-12T10:03:51.885Z,42.50
2018-06-12T10:06:19.660Z,40.50
2018-06-12T10:08:47.295Z,43.54
2018-06-12T10:11:14.938Z,44.86
2018-06-12T10:13:42.903Z,44.47
2018-06-12T10:16:10.625Z,42.69
2018-06-12T10:18:38.276Z,41.72
2018-06-12T10:21:05.916Z,40.29
2018-06-12T10:23:33.605Z,36.97
2018-06-12T10:26:01.292Z,36.42
2018-06-12T10:28:29.017Z,39.53
2018-06-12T10:30:56.678Z,37.77
2018-06-12T10:33:24.291Z,37.26
2018-06-12T10:35:51.951Z,40.09
2018-06-12T10:38:19.579Z,40.20
2018-06-12T10:40:47.228Z,40.27
2018-06-12T10:43:14.826Z,42.83
2018-06-12T10:45:42.468Z,43.07
2018-06-12T10:48:10.128Z,41.12
2018-06-12T10:50:37.812Z,39.57
2018-06-12T10:53:05.447Z,38.60
2018-06-12T10:55:33.094Z,39.36
2018-06-12T10:58:00.940Z,38.81
2018-06-12T11:00:28.526Z,36.18
2018-06-12T11:02:56.238Z,36.25
2018-06-12T11:05:23.917Z,39.09
2018-06-12T11:07:52.445Z,37.86
2018-06-12T11:10:20.097Z,38.09
2018-06-12T11:12:47.762Z,38.35
2018-06-12T11:15:15.364Z,35.94
2018-06-12T11:17:42.992Z,38.49
2018-06-12T11:20:10.654Z,36.70
2018-06-12T11:22:38.305Z,37.28
2018-06-12T11:25:05.928Z,34.49
2018-06-12T11:27:33.605Z,38.82
2018-06-12T11:30:01.219Z,38.22
2018-06-12T11:32:28.857Z,39.14
2018-06-12T11:34:56.418Z,38.47
2018-06-12T11:37:24.073Z,40.28
2018-06-12T11:39:51.736Z,40.42
2018-06-12T11:42:19.464Z,38.26
2018-06-12T11:44:47.086Z,37.01
2018-06-12T11:47:14.713Z,40.83
2018-06-12T11:49:42.362Z,38.31
2018-06-12T11:52:10.050Z,37.50
2018-06-12T11:54:40.210Z,36.90
2018-06-12T11:57:07.978Z,33.19
2018-06-12T11:59:35.581Z,29.85
2018-06-12T12:02:03.345Z,27.07
2018-06-12T12:04:30.969Z,24.91
2018-06-12T12:06:58.873Z,25.41
2018-06-12T12:09:27.114Z,25.83
2018-06-12T12:11:54.769Z,24.02
2018-06-12T12:14:22.337Z,25.17
2018-06-12T12:16:49.962Z,25.99
2018-06-12T12:19:17.596Z,24.30
2018-06-12T12:21:45.276Z,22.57
2018-06-12T12:24:12.888Z,19.61
2018-06-12T12:26:40.648Z,18.29
2018-06-12T12:29:08.242Z,20.39
2018-06-12T12:31:36.009Z,20.28
2018-06-12T12:34:03.761Z,18.13
2018-06-12T12:36:31.514Z,17.53
2018-06-12T12:38:59.149Z,18.87
2018-06-12T12:41:26.727Z,22.13
2018-06-12T12:43:54.329Z,23.49
2018-06-12T12:46:21.909Z,19.85
2018-06-12T12:48:49.617Z,18.60
2018-06-12T12:51:17.240Z,23.32
2018-06-12T12:53:44.831Z,20.72
2018-06-12T12:56:12.490Z,21.08
2018-06-12T12:58:40.225Z,23.62
2018-06-12T13:01:07.929Z,26.16
2018-06-12T13:03:35.635Z,28.39
2018-06-12T13:06:03.400Z,28.96
2018-06-12T13:08:31.022Z,27.38
2018-06-12T13:10:58.716Z,26.67
2018-06-12T13:13:27.301Z,28.65
2018-06-12T13:15:54.971Z,26.80
2018-06-12T13:18:22.660Z,25.19
2018-06-12T13:20:50.286Z,25.07
2018-06-12T13:23:17.932Z,25.08
2018-06-12T13:25:46.271Z,27.52
2018-06-12T13:28:13.991Z,29.92
2018-06-12T13:30:41.601Z,30.46
2018-06-12T13:33:09.281Z,30.61
2018-06-12T13:35:36.905Z,31.36
2018-06-12T13:38:05.155Z,32.14
2018-06-12T13:40:32.781Z,31.82
2018-06-12T13:45:45.617Z,29.79
2018-06-12T13:48:13.280Z,31.15
2018-06-12T13:50:40.915Z,29.78
2018-06-12T13:53:08.495Z,30.20
2018-06-12T13:55:36.161Z,30.29
2018-06-12T13:58:03.857Z,29.48
2018-06-12T14:00:31.524Z,30.62
2018-06-12T14:02:59.138Z,30.29
2018-06-12T14:05:26.994Z,24.04
2018-06-12T14:07:54.554Z,18.64
2018-06-12T14:10:22.152Z,15.26
2018-06-12T14:12:49.708Z,14.96
2018-06-12T14:15:17.390Z,14.57
2018-06-12T14:17:44.994Z,15.32
2018-06-12T14:20:12.733Z,16.00
2018-06-12T14:22:40.421Z,18.11
2018-06-12T14:25:08.084Z,19.97
2018-06-12T14:27:35.669Z,19.52
2018-06-12T14:30:03.684Z,19.99
2018-06-12T14:32:31.335Z,21.66
2018-06-12T14:34:59.001Z,24.92
2018-06-12T14:37:26.657Z,24.45
2018-06-12T14:39:54.311Z,23.71
2018-06-12T14:42:21.964Z,25.69
2018-06-12T14:44:49.678Z,25.73
2018-06-12T14:47:17.315Z,22.59
2018-06-12T14:49:44.970Z,21.29
2018-06-12T14:52:12.638Z,17.46
2018-06-12T14:54:40.284Z,14.50
2018-06-12T14:57:07.928Z,12.57
2018-06-12T14:59:35.680Z,15.10
2018-06-12T15:02:03.362Z,13.84
2018-06-12T15:04:31.164Z,17.30
2018-06-12T15:06:58.792Z,14.79
2018-06-12T15:09:26.428Z,16.82
2018-06-12T15:11:54.166Z,16.33
2018-06-12T15:14:22.144Z,14.00
2018-06-12T15:16:49.805Z,11.27
2018-06-12T15:19:17.449Z,10.69
2018-06-12T15:21:45.137Z,11.83
2018-06-12T15:24:12.820Z,12.96
2018-06-12T15:26:40.537Z,12.95
2018-06-12T15:29:08.159Z,14.75
2018-06-12T15:31:36.033Z,12.71
2018-06-12T15:34:03.899Z,13.07
2018-06-12T15:36:31.499Z,14.17
2018-06-12T15:38:59.241Z,14.61
2018-06-12T15:41:26.985Z,15.52
2018-06-12T15:43:54.781Z,13.38
2018-06-12T15:46:22.491Z,14.62
2018-06-12T15:48:50.221Z,11.65
2018-06-12T15:51:17.977Z,12.09
2018-06-12T15:53:45.708Z,11.95
2018-06-12T15:56:13.388Z,14.56
2018-06-12T15:58:41.987Z,14.88
2018-06-12T16:01:10.085Z,16.59
2018-06-12T16:03:38.585Z,19.92
2018-06-12T16:06:06.463Z,21.76
2018-06-12T16:08:34.417Z,19.83
2018-06-12T16:11:02.107Z,19.04
2018-06-12T16:13:30.919Z,16.95
2018-06-12T16:15:58.698Z,21.01
2018-06-12T16:18:26.587Z,23.55
2018-06-12T16:20:55.280Z,24.68
2018-06-12T16:23:23.575Z,24.10
2018-06-12T16:25:51.296Z,22.87
2018-06-12T16:28:18.922Z,22.47
2018-06-12T16:30:46.952Z,20.76
2018-06-12T16:33:14.522Z,17.86
2018-06-12T16:35:42.243Z,17.20
2018-06-12T16:38:09.896Z,18.49
2018-06-12T16:40:37.574Z,20.59
2018-06-12T16:43:05.244Z,21.20
2018-06-12T16:45:32.910Z,21.06
2018-06-12T16:48:00.572Z,19.90
2018-06-12T16:50:28.296Z,19.44
2018-06-12T16:52:55.935Z,15.95
2018-06-12T16:55:23.687Z,16.08
2018-06-12T16:57:51.305Z,15.71
2018-06-12T17:00:18.999Z,13.80
2018-06-12T17:02:46.633Z,14.45
2018-06-12T17:05:14.250Z,15.43
2018-06-12T17:07:42.023Z,15.67
2018-06-12T17:10:09.695Z,15.43
2018-06-12T17:12:44.027Z,17.37
2018-06-12T17:15:12.075Z,18.54
2018-06-12T17:17:39.716Z,19.48
2018-06-12T17:20:07.441Z,20.16
2018-06-12T17:22:35.134Z,19.02
2018-06-12T17:25:02.907Z,18.27
2018-06-12T17:27:30.669Z,17.84
2018-06-12T17:29:58.359Z,17.09
2018-06-12T17:32:26.071Z,18.20
2018-06-12T17:34:53.814Z,17.21
2018-06-12T17:37:21.732Z,17.85
2018-06-12T17:39:50.139Z,19.95
2018-06-12T17:42:17.849Z,23.02
2018-06-12T17:44:45.464Z,26.68
2018-06-12T17:47:13.186Z,27.13
2018-06-12T17:49:42.946Z,27.92
2018-06-12T17:52:10.686Z,29.40
2018-06-12T17:54:38.300Z,30.98
2018-06-12T17:57:05.995Z,32.35
2018-06-12T17:59:33.635Z,33.92
2018-06-12T18:02:01.260Z,35.51
2018-06-12T18:04:28.928Z,36.18
2018-06-12T18:06:56.626Z,36.52
2018-06-12T18:09:24.276Z,37.21
2018-06-12T18:11:52.050Z,36.95
2018-06-12T18:14:19.682Z,38.98
2018-06-12T18:16:47.359Z,39.33
2018-06-12T18:19:15.049Z,40.18
2018-06-12T18:21:42.714Z,41.35
2018-06-12T18:24:10.414Z,41.70
2018-06-12T18:26:38.167Z,42.62
2018-06-12T18:29:05.771Z,42.87
2018-06-12T18:31:33.425Z,43.08
2018-06-12T18:34:01.062Z,43.32
2018-06-12T18:36:28.859Z,43.07
2018-06-12T18:38:56.459Z,43.73
2018-06-12T18:41:24.140Z,43.51
2018-06-12T18:43:52.318Z,43.71
2018-06-12T18:46:20.092Z,44.19
2018-06-12T18:48:47.815Z,43.95
2018-06-12T18:51:15.485Z,43.71
2018-06-12T18:53:43.142Z,44.08
2018-06-12T18:56:10.771Z,44.25
2018-06-12T18:58:38.647Z,44.55
2018-06-12T19:01:06.437Z,44.04
2018-06-12T19:03:34.307Z,44.74
2018-06-12T19:06:02.065Z,45.54
2018-06-12T19:08:29.818Z,46.27
2018-06-12T19:10:57.663Z,45.77
2018-06-12T19:13:25.325Z,46.07
2018-06-12T19:15:53.104Z,46.38
2018-06-12T19:18:20.871Z,46.80
2018-06-12T19:20:48.706Z,46.41
2018-06-12T19:23:16.432Z,46.04
2018-06-12T19:25:44.294Z,45.51
2018-06-12T19:28:12.308Z,46.10
2018-06-12T19:30:40.118Z,46.33
2018-06-12T19:33:07.881Z,46.47
2018-06-12T19:35:35.737Z,46.29
2018-06-12T19:38:03.474Z,46.77
2018-06-12T19:40:31.339Z,46.41
2018-06-12T19:42:59.071Z,45.94
2018-06-12T19:45:26.920Z,45.27
2018-06-12T19:47:54.674Z,45.26
2018-06-12T19:50:22.582Z,44.08
2018-06-12T19:52:50.219Z,45.27
2018-06-12T19:55:18.231Z,45.62
2018-06-12T19:57:45.883Z,45.25
2018-06-12T20:00:13.558Z,44.89
2018-06-12T20:02:41.877Z,43.91
2018-06-12T20:05:09.607Z,44.70
2018-06-12T20:07:37.283Z,45.05
2018-06-12T20:10:04.961Z,44.69
2018-06-12T20:12:32.838Z,45.09
2018-06-12T20:15:00.517Z,43.99
2018-06-12T20:17:28.159Z,43.57
2018-06-12T20:19:55.918Z,44.06
2018-06-12T20:22:23.666Z,43.38
2018-06-12T20:24:51.477Z,44.75
2018-06-12T20:27:19.514Z,44.97
2018-06-12T20:29:47.165Z,45.82
2018-06-12T20:32:14.726Z,45.11
2018-06-12T20:34:42.491Z,44.72
2018-06-12T20:37:10.133Z,45.38
2018-06-12T20:39:37.847Z,45.97
2018-06-12T20:42:05.611Z,46.44
2018-06-12T20:44:33.321Z,47.33
2018-06-12T20:47:01.010Z,47.27
2018-06-12T20:49:28.737Z,47.25
2018-06-12T20:51:56.441Z,47.87
2018-06-12T20:54:24.169Z,47.83
2018-06-12T20:56:51.869Z,47.74
2018-06-12T20:59:19.529Z,47.45
2018-06-12T21:01:47.219Z,47.72
2018-06-12T21:04:16.062Z,47.34
2018-06-12T21:06:43.798Z,46.46
2018-06-12T21:09:11.462Z,47.75
2018-06-12T21:11:39.120Z,47.76
2018-06-12T21:14:06.830Z,47.16
2018-06-12T21:16:34.578Z,47.39
2018-06-12T21:19:02.295Z,47.26
2018-06-12T21:21:29.944Z,47.92
2018-06-12T21:23:57.657Z,47.50
2018-06-12T21:26:25.282Z,48.18
2018-06-12T21:28:53.263Z,48.09
2018-06-12T21:31:20.852Z,48.88
2018-06-12T21:33:48.540Z,49.06
2018-06-12T21:36:16.181Z,48.71
2018-06-12T21:38:43.787Z,48.80
2018-06-12T21:41:11.429Z,48.88
2018-06-12T21:43:39.095Z,49.70
2018-06-12T21:46:06.714Z,49.26
2018-06-12T21:48:34.309Z,48.77
2018-06-12T21:51:01.895Z,48.91
2018-06-12T21:53:29.496Z,48.58
2018-06-12T21:55:57.201Z,49.17
2018-06-12T21:58:24.835Z,49.12
2018-06-12T22:00:52.499Z,49.12
2018-06-12T22:05:53.538Z,49.81
2018-06-12T22:08:21.340Z,49.48
2018-06-12T22:10:49.172Z,49.87
2018-06-12T22:13:16.859Z,50.05
2018-06-12T22:15:44.507Z,50.51
2018-06-12T22:18:12.112Z,51.02
2018-06-12T22:20:39.869Z,50.52
2018-06-12T22:23:07.560Z,50.45
2018-06-12T22:25:35.262Z,49.92
2018-06-12T22:28:02.938Z,51.20
2018-06-12T22:30:30.654Z,50.95
2018-06-12T22:32:58.330Z,51.04
2018-06-12T22:35:26.019Z,51.43
2018-06-12T22:37:53.720Z,52.15
2018-06-12T22:40:21.442Z,52.35
2018-06-12T22:42:49.230Z,52.61
2018-06-12T22:45:16.931Z,52.87
2018-06-12T22:47:44.656Z,52.61
2018-06-12T22:50:12.380Z,53.33
2018-06-12T22:52:40.064Z,52.32
2018-06-12T22:55:07.820Z,52.99
2018-06-12T22:57:35.586Z,53.47
2018-06-12T23:00:03.548Z,53.07
2018-06-12T23:02:31.548Z,52.86
2018-06-12T23:04:59.202Z,53.57
2018-06-12T23:07:26.925Z,54.19
2018-06-12T23:09:54.574Z,55.28
2018-06-12T23:12:22.345Z,55.62
2018-06-12T23:14:50.057Z,55.78
2018-06-12T23:17:17.729Z,55.34
2018-06-12T23:20:04.016Z,54.38
2018-06-12T23:22:31.787Z,54.75
2018-06-12T23:24:59.455Z,54.34
2018-06-12T23:27:27.176Z,55.18
2018-06-12T23:29:54.841Z,54.89
2018-06-12T23:32:22.489Z,55.50
2018-06-12T23:34:50.977Z,55.26
2018-06-12T23:37:19.341Z,55.26
2018-06-12T23:39:47.096Z,54.92
2018-06-12T23:42:14.825Z,54.38
2018-06-12T23:44:42.560Z,54.18
2018-06-12T23:47:10.271Z,54.48
2018-06-12T23:49:38.047Z,54.75
2018-06-12T23:52:05.960Z,53.93
2018-06-12T23:54:33.656Z,54.31
2018-06-12T23:57:01.338Z,54.66
2018-06-12T23:59:29.050Z,54.45
